Time;durP1;ratioP1;P1;durP2;ratioP2;P2;SDS_P1;SDS_P2;PMS_P1;PMS_P2;Temp;Humidity;BMP_temperature;BMP_pressure;BME280_temperature;BME280_humidity;BME280_pressure;Samples;Min_cycle;Max_cycle;Signal;HPM_P1;HPM_P2
2023/01/23 00:00:29;;;;;;;28.83;15.85;;;-1.60;99.90;;;;;;5049961;28;20029;-51
2023/01/23 00:02:56;;;;;;;29.15;15.52;;;-1.60;99.90;;;;;;5050295;28;20028;-45
2023/01/23 00:05:21;;;;;;;35.83;15.57;;;-1.60;99.90;;;;;;5050188;28;20029;-45
2023/01/23 00:07:47;;;;;;;30.23;15.80;;;-1.70;99.90;;;;;;5050118;28;20373;-50
2023/01/23 00:10:12;;;;;;;29.52;16.05;;;-1.60;99.90;;;;;;5049856;28;20036;-47
2023/01/23 00:12:42;;;;;;;31.58;16.70;;;-1.60;99.90;;;;;;5049953;28;20044;-51
2023/01/23 00:15:08;;;;;;;;;;;-1.60;99.90;;;;;;5050593;28;20022;-49
2023/01/23 00:17:34;;;;;;;29.85;15.27;;;-1.50;99.90;;;;;;5069083;28;19914;-53
2023/01/23 00:20:00;;;;;;;35.88;15.88;;;-1.60;99.90;;;;;;5070402;28;20028;-49
2023/01/23 00:22:25;;;;;;;31.02;16.60;;;-1.70;99.90;;;;;;5070101;28;20027;-45
2023/01/23 00:24:51;;;;;;;28.33;16.13;;;-1.70;99.90;;;;;;5071843;28;20530;-46
2023/01/23 00:27:17;;;;;;;33.05;17.17;;;-1.70;99.90;;;;;;5073867;28;20075;-48
2023/01/23 00:29:44;;;;;;;33.92;16.40;;;-1.80;99.90;;;;;;5073262;28;20059;-51
2023/01/23 00:32:09;;;;;;;30.83;16.58;;;-1.90;99.90;;;;;;5074043;28;20068;-48
2023/01/23 00:34:36;;;;;;;33.15;15.57;;;-1.80;99.90;;;;;;5073463;28;20048;-54
2023/01/23 00:37:02;;;;;;;29.48;15.65;;;-1.90;99.90;;;;;;5073844;28;20082;-47
2023/01/23 00:39:28;;;;;;;34.88;17.15;;;-1.90;99.90;;;;;;5073604;28;20020;-48
2023/01/23 00:41:53;;;;;;;31.92;16.63;;;-1.80;99.90;;;;;;5072392;28;20108;-47
2023/01/23 00:44:19;;;;;;;28.02;15.02;;;-1.80;99.90;;;;;;5073324;28;20115;-45
2023/01/23 00:46:45;;;;;;;27.80;15.85;;;-1.80;99.90;;;;;;5074000;28;20020;-49
2023/01/23 00:49:10;;;;;;;32.95;16.92;;;-1.80;99.90;;;;;;5073801;28;20036;-45
2023/01/23 00:51:36;;;;;;;32.83;16.45;;;-1.90;99.90;;;;;;5073375;28;20071;-45
2023/01/23 00:54:02;;;;;;;29.48;16.10;;;-1.90;99.90;;;;;;5073507;28;20020;-44
2023/01/23 00:56:28;;;;;;;29.33;16.23;;;-1.90;99.90;;;;;;5073456;28;20491;-44
2023/01/23 00:58:53;;;;;;;26.20;15.57;;;-1.90;99.90;;;;;;5072874;28;20052;-44
2023/01/23 01:01:21;;;;;;;27.20;15.07;;;-2.00;99.90;;;;;;5073274;28;20029;-47
2023/01/23 01:03:47;;;;;;;31.88;16.70;;;-2.00;99.90;;;;;;5073244;28;20034;-44
2023/01/23 01:06:14;;;;;;;27.95;15.27;;;-2.10;99.90;;;;;;5073482;28;20040;-45
2023/01/23 01:08:40;;;;;;;26.98;14.82;;;-2.00;99.90;;;;;;5073114;28;20023;-44
2023/01/23 01:11:06;;;;;;;31.13;16.42;;;-2.10;99.90;;;;;;5072985;28;20033;-44
2023/01/23 01:13:32;;;;;;;27.15;14.90;;;-2.20;99.90;;;;;;5072867;28;20483;-51
2023/01/23 01:16:00;;;;;;;32.92;16.27;;;-2.20;99.90;;;;;;5059036;28;20024;-44
2023/01/23 01:18:27;;;;;;;26.95;14.52;;;-2.30;99.90;;;;;;5073082;28;20021;-44
2023/01/23 01:20:53;;;;;;;25.17;14.43;;;-2.30;99.90;;;;;;5072851;28;20483;-47
2023/01/23 01:23:19;;;;;;;30.52;14.98;;;-2.30;99.90;;;;;;5072808;28;20052;-47
2023/01/23 01:25:45;;;;;;;29.77;14.55;;;-2.40;99.90;;;;;;5072753;28;20387;-44
2023/01/23 01:28:11;;;;;;;30.70;14.70;;;-2.40;99.90;;;;;;5072822;28;20099;-44
2023/01/23 01:30:37;;;;;;;32.90;15.00;;;-2.50;99.90;;;;;;5072580;28;20057;-43
2023/01/23 01:33:03;;;;;;;30.35;15.07;;;-2.40;99.90;;;;;;5072868;28;20099;-44
2023/01/23 01:35:29;;;;;;;30.10;16.17;;;-2.40;99.90;;;;;;5072004;28;20024;-46
2023/01/23 01:37:54;;;;;;;32.05;16.58;;;-2.30;99.90;;;;;;5072592;28;20036;-44
2023/01/23 01:40:24;;;;;;;35.13;15.63;;;-2.20;99.90;;;;;;5072637;28;20020;-52
2023/01/23 01:42:55;;;;;;;30.58;16.23;;;-2.10;99.90;;;;;;5072285;28;20376;-54
2023/01/23 01:45:58;;;;;;;27.77;16.20;;;-2.00;99.90;;;;;;5072799;28;20112;-44
2023/01/23 01:48:29;;;;;;;28.45;15.02;;;-2.00;99.90;;;;;;5046138;28;20024;-51
2023/01/23 01:50:56;;;;;;;29.85;16.35;;;-1.90;99.90;;;;;;5071206;28;20036;-56
2023/01/23 01:53:24;;;;;;;29.90;15.88;;;-1.70;99.90;;;;;;5072325;28;20028;-50
2023/01/23 01:55:50;;;;;;;26.63;15.00;;;-1.60;99.90;;;;;;5072331;28;20043;-46
2023/01/23 01:58:16;;;;;;;28.45;15.40;;;-1.50;99.90;;;;;;5053623;28;20021;-51
2023/01/23 02:00:42;;;;;;;29.63;14.13;;;-1.50;99.90;;;;;;5071585;28;20020;-45
2023/01/23 02:03:08;;;;;;;26.02;14.00;;;-1.40;99.90;;;;;;5072096;28;20132;-51
2023/01/23 02:05:41;;;;;;;26.13;13.82;;;-1.40;99.90;;;;;;5072148;28;20029;-48
2023/01/23 02:08:17;;;;;;;30.55;14.48;;;-1.40;99.90;;;;;;5071951;28;20044;-46
2023/01/23 02:10:43;;;;;;;23.27;13.18;;;-1.30;99.90;;;;;;5072137;28;20032;-45
2023/01/23 02:13:21;;;;;;;30.20;13.85;;;-1.30;99.90;;;;;;5071697;28;20031;-45
2023/01/23 02:15:47;;;;;;;25.85;13.60;;;-1.30;99.90;;;;;;5057817;28;20020;-45
2023/01/23 02:18:13;;;;;;;25.67;13.85;;;-1.20;99.90;;;;;;5072233;28;20032;-45
2023/01/23 02:20:38;;;;;;;26.08;13.68;;;-1.10;99.90;;;;;;5071820;28;20070;-48
2023/01/23 02:23:18;;;;;;;23.50;13.00;;;-1.10;99.90;;;;;;5072184;28;20021;-49
2023/01/23 02:25:43;;;;;;;25.17;12.98;;;-1.00;99.90;;;;;;5071819;28;20032;-49
2023/01/23 02:28:14;;;;;;;25.35;13.52;;;-1.00;99.90;;;;;;5071670;28;20047;-50
2023/01/23 02:30:41;;;;;;;26.40;13.50;;;-0.90;99.90;;;;;;5071334;28;20055;-46
2023/01/23 02:33:19;;;;;;;23.35;12.80;;;-0.90;99.90;;;;;;5071561;28;20035;-55
2023/01/23 02:35:45;;;;;;;25.08;12.52;;;-0.90;99.90;;;;;;5071493;28;20036;-46
2023/01/23 02:38:11;;;;;;;25.90;12.35;;;-0.90;99.90;;;;;;5071591;28;20024;-49
2023/01/23 02:40:40;;;;;;;23.58;13.07;;;-0.90;99.90;;;;;;5071544;28;20028;-47
2023/01/23 02:43:09;;;;;;;26.05;11.80;;;-0.80;99.90;;;;;;5071097;28;20034;-48
2023/01/23 02:45:35;;;;;;;23.38;12.23;;;-0.80;99.90;;;;;;5071342;28;20107;-50
2023/01/23 02:48:04;;;;;;;22.38;12.23;;;-0.80;99.90;;;;;;5070373;28;20031;-47
2023/01/23 02:50:30;;;;;;;21.40;13.17;;;-0.70;99.90;;;;;;5071331;28;20094;-50
2023/01/23 02:52:57;;;;;;;23.55;11.80;;;-0.70;99.90;;;;;;5071186;28;20484;-47
2023/01/23 02:55:25;;;;;;;22.10;12.25;;;-0.60;99.90;;;;;;5071264;28;20085;-46
2023/01/23 02:57:51;;;;;;;19.73;12.20;;;-0.60;99.90;;;;;;5070882;28;20044;-46
2023/01/23 03:00:21;;;;;;;23.10;11.75;;;-0.60;99.90;;;;;;5071121;28;20062;-47
2023/01/23 03:02:48;;;;;;;18.73;11.70;;;-0.60;99.90;;;;;;5071103;28;20578;-45
2023/01/23 03:05:18;;;;;;;22.92;12.30;;;-0.50;99.90;;;;;;5071048;28;20025;-53
2023/01/23 03:07:43;;;;;;;26.58;12.27;;;-0.50;99.90;;;;;;5071116;28;20065;-51
2023/01/23 03:10:10;;;;;;;23.27;12.02;;;-0.50;99.90;;;;;;5070775;28;20448;-46
2023/01/23 03:12:41;;;;;;;27.17;13.23;;;-0.50;99.90;;;;;;5070926;28;20024;-47
2023/01/23 03:15:07;;;;;;;21.67;12.35;;;-0.50;99.90;;;;;;5058108;28;20112;-55
2023/01/23 03:17:33;;;;;;;24.70;13.40;;;-0.50;99.90;;;;;;5069413;28;20029;-49
2023/01/23 03:19:58;;;;;;;25.23;13.27;;;-0.40;99.90;;;;;;5070830;28;20036;-56
2023/01/23 03:22:25;;;;;;;26.35;13.77;;;-0.40;99.90;;;;;;5070652;28;20155;-49
2023/01/23 03:24:50;;;;;;;23.40;12.88;;;-0.50;99.90;;;;;;5070737;28;20025;-50
2023/01/23 03:27:16;;;;;;;26.67;13.95;;;-0.40;99.90;;;;;;5070688;28;20024;-49
2023/01/23 03:32:28;;;;;;;24.08;13.65;;;-0.40;99.90;;;;;;5070472;28;20477;-50
2023/01/23 03:34:54;;;;;;;21.80;12.27;;;-0.40;99.90;;;;;;5070639;28;20387;-49
2023/01/23 03:37:19;;;;;;;20.70;11.93;;;-0.40;99.90;;;;;;5070543;28;20032;-45
2023/01/23 03:42:32;;;;;;;24.45;12.48;;;-0.30;99.90;;;;;;5070566;28;20032;-50
2023/01/23 03:44:57;;;;;;;22.20;12.15;;;-0.20;99.90;;;;;;5070420;28;20032;-50
2023/01/23 03:47:25;;;;;;;17.08;10.48;;;-0.20;99.90;;;;;;5070448;28;20027;-53
2023/01/23 03:49:50;;;;;;;20.73;11.25;;;-0.20;99.90;;;;;;5070303;28;20025;-45
2023/01/23 03:52:16;;;;;;;17.75;10.70;;;-0.20;99.90;;;;;;5070407;28;20147;-48
2023/01/23 03:54:42;;;;;;;20.45;11.60;;;-0.20;99.90;;;;;;5070374;28;20025;-47
2023/01/23 03:57:08;;;;;;;23.52;10.77;;;-0.20;99.90;;;;;;5070484;28;20036;-55
2023/01/23 03:59:34;;;;;;;19.50;11.15;;;-0.20;99.90;;;;;;5072511;28;20064;-48
2023/01/23 04:02:00;;;;;;;18.40;10.02;;;-0.20;99.90;;;;;;5073112;28;20063;-49
2023/01/23 04:04:26;;;;;;;15.38;9.15;;;-0.20;99.90;;;;;;5074232;28;20055;-45
2023/01/23 04:06:52;;;;;;;16.60;9.52;;;-0.10;99.90;;;;;;5074272;28;20463;-48
2023/01/23 04:09:17;;;;;;;17.95;9.68;;;-0.10;99.90;;;;;;5074577;28;20127;-52
2023/01/23 04:11:43;;;;;;;15.98;9.32;;;0.00;99.90;;;;;;5074028;28;20043;-51
2023/01/23 04:14:08;;;;;;;18.08;10.48;;;0.10;99.90;;;;;;5069247;28;20025;-48
2023/01/23 04:16:34;;;;;;;20.88;10.63;;;0.10;99.90;;;;;;5064866;28;20103;-48
2023/01/23 04:18:59;;;;;;;19.20;10.75;;;0.10;99.90;;;;;;5074298;28;20489;-45
2023/01/23 04:21:25;;;;;;;17.92;9.98;;;0.10;99.90;;;;;;5074200;28;20040;-57
2023/01/23 04:23:51;;;;;;;18.25;10.23;;;0.10;99.90;;;;;;5072718;28;20020;-55
2023/01/23 04:26:16;;;;;;;19.05;10.40;;;0.10;99.90;;;;;;5073980;28;20047;-51
2023/01/23 04:28:42;;;;;;;17.67;9.75;;;0.10;99.90;;;;;;5073796;28;20020;-45
2023/01/23 04:31:08;;;;;;;16.50;10.02;;;0.10;99.90;;;;;;5073552;28;20519;-48
2023/01/23 04:33:34;;;;;;;17.75;9.90;;;0.20;99.90;;;;;;5073807;28;20032;-50
2023/01/23 04:36:02;;;;;;;15.38;9.30;;;0.10;99.90;;;;;;5073839;28;20024;-48
2023/01/23 04:38:29;;;;;;;21.23;9.95;;;0.10;99.90;;;;;;5063549;28;20025;-48
2023/01/23 04:40:55;;;;;;;16.10;8.77;;;0.20;99.90;;;;;;5053801;28;20029;-51
2023/01/23 04:43:21;;;;;;;16.25;8.93;;;0.20;99.90;;;;;;5056679;28;20055;-47
2023/01/23 04:45:50;;;;;;;16.88;9.00;;;0.20;99.90;;;;;;5071723;28;20514;-49
2023/01/23 04:48:15;;;;;;;14.83;8.67;;;0.20;99.90;;;;;;5059684;28;20024;-51
2023/01/23 04:50:41;;;;;;;17.52;8.90;;;0.20;99.90;;;;;;5073642;28;20533;-48
2023/01/23 04:53:07;;;;;;;15.45;9.50;;;0.30;99.90;;;;;;5073422;28;20438;-47
2023/01/23 04:55:32;;;;;;;17.80;9.63;;;0.30;99.90;;;;;;5066408;28;20032;-46
2023/01/23 04:57:59;;;;;;;15.63;9.27;;;0.30;99.90;;;;;;5066414;28;20151;-49
2023/01/23 05:00:27;;;;;;;15.45;8.88;;;0.30;99.90;;;;;;5073263;28;20066;-46
2023/01/23 05:02:53;;;;;;;13.55;8.13;;;0.30;99.90;;;;;;5073381;28;20120;-48
2023/01/23 05:05:22;;;;;;;16.52;8.32;;;0.30;99.90;;;;;;5073030;28;20482;-46
2023/01/23 05:07:48;;;;;;;17.08;9.55;;;0.30;99.90;;;;;;5073133;28;20063;-45
2023/01/23 05:10:14;;;;;;;14.40;8.32;;;0.30;99.90;;;;;;5069483;28;20060;-47
2023/01/23 05:12:40;;;;;;;14.93;8.25;;;0.30;99.90;;;;;;5063021;28;20037;-47
2023/01/23 05:15:07;;;;;;;14.18;7.97;;;0.40;99.90;;;;;;5066538;28;20027;-45
2023/01/23 05:17:33;;;;;;;15.93;8.65;;;0.40;99.90;;;;;;5069386;28;20119;-44
2023/01/23 05:19:58;;;;;;;15.82;9.02;;;0.40;99.90;;;;;;5063797;28;20563;-46
2023/01/23 05:22:24;;;;;;;18.85;9.13;;;0.40;99.90;;;;;;5054484;28;20040;-52
2023/01/23 05:24:50;;;;;;;15.65;8.15;;;0.40;99.90;;;;;;5056272;28;20109;-50
2023/01/23 05:27:15;;;;;;;16.83;9.23;;;0.50;99.90;;;;;;5052703;28;20029;-45
2023/01/23 05:29:41;;;;;;;14.07;8.43;;;0.50;99.90;;;;;;5084972;28;20407;-51
2023/01/23 05:32:06;;;;;;;14.40;8.35;;;0.60;99.90;;;;;;5052650;28;20397;-50
2023/01/23 05:34:32;;;;;;;13.98;8.57;;;0.60;99.90;;;;;;5052593;28;20430;-45
2023/01/23 05:36:58;;;;;;;16.33;9.57;;;0.60;99.90;;;;;;5052607;28;20033;-45
2023/01/23 05:39:23;;;;;;;15.60;8.80;;;0.50;99.90;;;;;;5084701;28;20150;-48
2023/01/23 05:41:49;;;;;;;15.77;8.93;;;0.50;99.90;;;;;;5052604;28;20029;-50
2023/01/23 05:44:15;;;;;;;16.60;8.52;;;0.50;99.90;;;;;;5052310;28;20092;-47
2023/01/23 05:46:40;;;;;;;13.60;7.68;;;0.50;99.90;;;;;;5052242;28;20024;-49
2023/01/23 05:49:06;;;;;;;15.00;7.85;;;0.50;99.90;;;;;;5065290;28;20023;-50
2023/01/23 05:51:32;;;;;;;15.30;8.85;;;0.50;99.90;;;;;;5072470;28;20040;-48
2023/01/23 05:53:59;;;;;;;13.63;8.23;;;0.40;99.90;;;;;;5072707;28;20463;-51
2023/01/23 05:56:26;;;;;;;13.93;8.27;;;0.40;99.90;;;;;;5072292;28;20035;-48
2023/01/23 05:58:51;;;;;;;14.25;7.88;;;0.40;99.90;;;;;;5072310;28;20021;-48
2023/01/23 06:01:18;;;;;;;14.23;7.95;;;0.40;99.90;;;;;;5072226;28;20568;-50
2023/01/23 06:03:44;;;;;;;16.08;7.85;;;0.40;99.90;;;;;;5072473;28;20115;-53
2023/01/23 06:06:10;;;;;;;13.32;8.00;;;0.30;99.90;;;;;;5072355;28;20033;-50
2023/01/23 06:08:35;;;;;;;13.73;8.07;;;0.30;99.90;;;;;;5072094;28;20023;-53
2023/01/23 06:11:01;;;;;;;16.13;8.10;;;0.20;99.90;;;;;;5072048;28;20025;-55
2023/01/23 06:13:27;;;;;;;12.07;8.18;;;0.10;99.90;;;;;;5071918;28;20032;-49
2023/01/23 06:15:53;;;;;;;13.88;8.55;;;0.00;99.90;;;;;;5072132;28;20104;-45
2023/01/23 06:18:19;;;;;;;14.88;8.52;;;0.00;99.90;;;;;;5071804;28;20063;-51
2023/01/23 06:20:45;;;;;;;13.18;7.97;;;-0.10;99.90;;;;;;5071978;28;20056;-52
2023/01/23 06:23:11;;;;;;;12.98;8.05;;;-0.20;99.90;;;;;;5071681;28;20104;-45
2023/01/23 06:25:39;;;;;;;13.15;8.15;;;-0.20;99.90;;;;;;5071708;28;21407;-45
2023/01/23 06:28:05;;;;;;;14.20;7.82;;;-0.30;99.90;;;;;;5071688;28;20021;-47
2023/01/23 06:30:30;;;;;;;13.43;7.38;;;-0.30;99.90;;;;;;5071453;28;20040;-46
2023/01/23 06:32:56;;;;;;;14.00;8.43;;;-0.30;99.90;;;;;;5071755;28;20036;-49
2023/01/23 06:35:22;;;;;;;13.95;8.35;;;-0.40;99.90;;;;;;5071461;28;20024;-51
2023/01/23 06:37:47;;;;;;;13.57;7.65;;;-0.40;99.90;;;;;;5071760;28;20047;-47
2023/01/23 06:40:14;;;;;;;12.45;7.57;;;-0.40;99.90;;;;;;5071633;28;20029;-52
2023/01/23 06:42:40;;;;;;;15.82;8.82;;;-0.40;99.90;;;;;;5071275;28;20028;-45
2023/01/23 06:45:08;;;;;;;13.27;8.02;;;-0.40;99.90;;;;;;5071386;28;20541;-49
2023/01/23 06:47:34;;;;;;;14.23;7.97;;;-0.40;99.90;;;;;;5057473;28;20067;-48
2023/01/23 06:50:02;;;;;;;14.20;7.95;;;-0.40;99.90;;;;;;5071249;28;20452;-48
2023/01/23 06:52:29;;;;;;;14.07;8.45;;;-0.50;99.90;;;;;;5071159;28;20075;-51
2023/01/23 06:54:54;;;;;;;15.40;8.50;;;-0.50;99.90;;;;;;5071104;28;20051;-49
2023/01/23 06:57:20;;;;;;;14.55;8.35;;;-0.50;99.90;;;;;;5071222;28;20444;-48
2023/01/23 06:59:46;;;;;;;16.13;9.00;;;-0.50;99.90;;;;;;5070957;28;20024;-48
2023/01/23 07:02:11;;;;;;;14.57;9.48;;;-0.60;99.90;;;;;;5071109;28;20016;-52
2023/01/23 07:04:37;;;;;;;16.48;10.02;;;-0.70;99.90;;;;;;5070950;28;20048;-50
2023/01/23 07:07:03;;;;;;;17.20;9.93;;;-0.70;99.90;;;;;;5071114;28;20024;-46
2023/01/23 07:09:28;;;;;;;16.85;9.73;;;-0.70;99.90;;;;;;5070958;28;20032;-53
2023/01/23 07:11:54;;;;;;;17.40;10.20;;;-0.70;99.90;;;;;;5070804;28;20448;-48
2023/01/23 07:14:20;;;;;;;19.73;10.80;;;-0.70;99.90;;;;;;5071104;28;20116;-47
2023/01/23 07:16:45;;;;;;;19.08;10.63;;;-0.70;99.90;;;;;;5070913;28;20361;-54
2023/01/23 07:19:11;;;;;;;22.85;11.23;;;-0.70;99.90;;;;;;5070873;28;20388;-49
2023/01/23 07:21:37;;;;;;;21.10;12.07;;;-0.60;99.90;;;;;;5070582;28;20071;-49
2023/01/23 07:24:03;;;;;;;21.10;11.80;;;-0.60;99.90;;;;;;5070727;28;20472;-51
2023/01/23 07:26:28;;;;;;;19.73;11.45;;;-0.60;99.90;;;;;;5070747;28;20036;-53
2023/01/23 07:28:54;;;;;;;23.20;12.00;;;-0.60;99.90;;;;;;5070541;28;20021;-50
2023/01/23 07:31:20;;;;;;;21.38;11.45;;;-0.60;99.90;;;;;;5070444;28;20051;-49
2023/01/23 07:33:46;;;;;;;19.10;10.43;;;-0.60;99.90;;;;;;5069857;28;20024;-55
2023/01/23 07:36:13;;;;;;;19.98;11.02;;;-0.50;99.90;;;;;;5069423;28;20028;-48
2023/01/23 07:38:39;;;;;;;23.63;11.15;;;-0.50;99.90;;;;;;5070401;28;20497;-47
2023/01/23 07:41:05;;;;;;;19.67;10.65;;;-0.60;99.90;;;;;;5070528;28;20056;-46
2023/01/23 07:43:30;;;;;;;21.08;11.77;;;-0.70;99.90;;;;;;5070307;28;20024;-52
2023/01/23 07:45:59;;;;;;;21.08;12.02;;;-0.70;99.90;;;;;;5065525;28;20017;-46
2023/01/23 07:48:24;;;;;;;17.58;10.13;;;-0.90;99.90;;;;;;5057139;28;20541;-50
2023/01/23 07:50:50;;;;;;;19.38;10.23;;;-0.90;99.90;;;;;;5070634;28;20041;-47
2023/01/23 07:53:16;;;;;;;17.98;10.02;;;-1.00;99.90;;;;;;5070336;28;20490;-48
2023/01/23 07:55:41;;;;;;;21.15;11.48;;;-1.00;99.90;;;;;;5070495;28;20394;-46
2023/01/23 07:58:07;;;;;;;18.48;10.63;;;-1.10;99.90;;;;;;5068991;28;20754;-47
2023/01/23 08:00:33;;;;;;;18.42;10.88;;;-1.10;99.90;;;;;;5070479;28;20107;-45
2023/01/23 08:02:59;;;;;;;20.40;11.27;;;-1.10;99.90;;;;;;5069208;28;20108;-45
2023/01/23 08:05:24;;;;;;;19.80;11.52;;;-1.10;99.90;;;;;;5070573;28;20052;-45
2023/01/23 08:07:50;;;;;;;18.27;11.20;;;-1.20;99.90;;;;;;5070500;28;20036;-44
2023/01/23 08:10:16;;;;;;;18.90;10.20;;;-1.20;99.90;;;;;;5051110;28;20468;-46
2023/01/23 08:12:42;;;;;;;20.77;11.75;;;-1.30;99.90;;;;;;5050491;28;20551;-45
2023/01/23 08:15:08;;;;;;;20.83;11.00;;;-1.20;99.90;;;;;;5050153;28;20063;-49
2023/01/23 08:17:34;;;;;;;21.10;11.77;;;-1.20;99.90;;;;;;5050414;28;20029;-45
2023/01/23 08:19:59;;;;;;;25.23;12.57;;;-1.20;99.90;;;;;;5052749;28;20036;-45
2023/01/23 08:22:25;;;;;;;21.17;11.50;;;-1.10;99.90;;;;;;5066864;28;20029;-50
2023/01/23 08:24:51;;;;;;;18.25;11.55;;;-1.10;99.90;;;;;;5067071;28;20044;-48
2023/01/23 08:27:16;;;;;;;24.83;12.73;;;-1.10;99.90;;;;;;5065317;28;20036;-50
2023/01/23 08:29:42;;;;;;;21.00;11.73;;;-1.00;99.90;;;;;;5052583;28;20040;-45
2023/01/23 08:32:07;;;;;;;20.73;11.38;;;-1.00;99.90;;;;;;5049869;28;20072;-45
2023/01/23 08:34:33;;;;;;;24.60;12.02;;;-1.00;99.90;;;;;;5083366;28;20053;-46
2023/01/23 08:36:59;;;;;;;22.92;13.55;;;-1.00;99.90;;;;;;5055213;28;20021;-46
2023/01/23 08:39:24;;;;;;;22.92;12.32;;;-0.80;99.90;;;;;;5049812;28;20087;-49
2023/01/23 08:41:50;;;;;;;20.63;12.02;;;-0.40;99.90;;;;;;5049831;28;20029;-46
2023/01/23 08:44:16;;;;;;;21.30;11.30;;;0.60;99.90;;;;;;5053962;28;20087;-52
2023/01/23 08:46:44;;;;;;;18.80;10.88;;;2.20;99.90;;;;;;5063131;28;20040;-47
2023/01/23 08:49:10;;;;;;;16.30;9.52;;;4.00;99.90;;;;;;5093001;28;20109;-46
2023/01/23 08:51:36;;;;;;;16.08;8.43;;;5.70;99.90;;;;;;5068424;28;20591;-50
2023/01/23 08:54:02;;;;;;;13.32;8.35;;;7.30;99.90;;;;;;5071757;28;20024;-55
2023/01/23 08:56:27;;;;;;;14.68;8.43;;;8.80;99.90;;;;;;5071356;28;20024;-47
2023/01/23 08:58:53;;;;;;;13.32;8.40;;;10.00;96.40;;;;;;5072693;28;20016;-50
2023/01/23 09:01:21;;;;;;;12.95;8.10;;;10.90;91.60;;;;;;5058517;28;20092;-50
2023/01/23 09:03:47;;;;;;;10.90;7.27;;;11.60;86.00;;;;;;5053428;28;20049;-46
2023/01/23 09:06:15;;;;;;;10.90;8.20;;;12.40;82.50;;;;;;5053357;28;20067;-47
2023/01/23 09:08:41;;;;;;;15.13;9.02;;;13.00;77.80;;;;;;5053138;28;20032;-52
2023/01/23 09:11:08;;;;;;;14.52;8.48;;;13.40;74.60;;;;;;5053338;28;20037;-50
2023/01/23 09:13:34;;;;;;;11.00;7.28;;;13.80;69.10;;;;;;5053187;28;20025;-45
2023/01/23 09:16:01;;;;;;;12.98;7.32;;;13.90;66.60;;;;;;5053240;28;20049;-50
2023/01/23 09:18:27;;;;;;;10.82;7.80;;;14.00;66.50;;;;;;5056352;28;20017;-47
2023/01/23 09:20:53;;;;;;;10.60;7.45;;;13.80;61.70;;;;;;5064739;28;20021;-48
2023/01/23 09:23:20;;;;;;;12.00;7.82;;;12.70;63.60;;;;;;5056088;28;20040;-49
2023/01/23 09:25:45;;;;;;;12.40;8.52;;;10.80;66.60;;;;;;5052511;28;20060;-48
2023/01/23 09:28:11;;;;;;;15.50;10.90;;;9.00;71.20;;;;;;5052794;28;20029;-49
2023/01/23 09:30:37;;;;;;;16.50;11.05;;;7.30;76.00;;;;;;5052684;28;20433;-49
2023/01/23 09:33:02;;;;;;;18.58;10.95;;;6.00;81.40;;;;;;5053014;28;20040;-46
2023/01/23 09:35:28;;;;;;;14.32;9.15;;;5.10;85.60;;;;;;5051855;28;20699;-46
2023/01/23 09:37:59;;;;;;;13.43;8.80;;;4.30;89.30;;;;;;5083123;28;20040;-50
2023/01/23 09:40:50;;;;;;;13.30;8.55;;;3.90;91.00;;;;;;5050686;28;20036;-49
2023/01/23 09:43:31;;;;;;;14.93;8.38;;;3.60;92.80;;;;;;5046139;28;20392;-49
2023/01/23 09:46:04;;;;;;;14.60;8.45;;;3.40;94.10;;;;;;5049246;28;20032;-49
2023/01/23 09:49:07;;;;;;;12.07;7.78;;;3.40;95.50;;;;;;5058268;28;20052;-46
2023/01/23 09:51:55;;;;;;;11.55;6.72;;;3.30;97.30;;;;;;5061025;28;20040;-45
2023/01/23 09:54:45;;;;;;;11.82;6.43;;;3.70;98.90;;;;;;5072213;28;20032;-49
2023/01/23 09:57:37;;;;;;;11.43;6.30;;;4.30;98.60;;;;;;5050151;28;20028;-48
2023/01/23 10:00:19;;;;;;;9.70;6.55;;;4.70;97.70;;;;;;5065814;28;20054;-48
2023/01/23 10:02:45;;;;;;;10.73;5.90;;;5.50;98.70;;;;;;5072180;28;20493;-50
2023/01/23 10:05:20;;;;;;;9.57;5.47;;;7.10;94.90;;;;;;5071079;28;20021;-52
2023/01/23 10:07:52;;;;;;;9.93;6.28;;;7.40;92.20;;;;;;5072370;28;20025;-44
2023/01/23 10:10:23;;;;;;;12.15;5.65;;;7.50;91.70;;;;;;5054701;28;20082;-47
2023/01/23 10:13:07;;;;;;;11.23;6.38;;;7.60;92.20;;;;;;5082173;28;20123;-50
2023/01/23 10:15:51;;;;;;;11.32;6.38;;;7.40;91.60;;;;;;5051776;28;20191;-47
2023/01/23 10:18:35;;;;;;;9.50;6.38;;;7.00;92.00;;;;;;5051809;28;20484;-52
2023/01/23 10:21:19;;;;;;;9.45;6.38;;;6.90;93.20;;;;;;5041314;28;20112;-49
2023/01/23 10:24:12;;;;;;;10.98;6.55;;;6.70;93.40;;;;;;5068359;28;20112;-45
2023/01/23 10:26:43;;;;;;;10.75;6.20;;;6.50;93.40;;;;;;5069464;28;20013;-46
2023/01/23 10:29:30;;;;;;;11.82;6.30;;;6.40;94.20;;;;;;5067981;28;20100;-46
2023/01/23 10:32:00;;;;;;;9.98;5.30;;;6.20;94.30;;;;;;5066622;28;20064;-44
2023/01/23 10:34:39;;;;;;;12.80;5.60;;;6.00;94.70;;;;;;5064609;28;20082;-49
2023/01/23 10:37:29;;;;;;;9.03;5.40;;;5.70;95.40;;;;;;5068963;28;20324;-49
2023/01/23 10:40:02;;;;;;;10.23;5.30;;;5.50;96.10;;;;;;5070755;28;20285;-46
2023/01/23 10:42:28;;;;;;;11.07;5.20;;;5.30;96.30;;;;;;5067211;28;20079;-44
2023/01/23 10:44:54;;;;;;;9.45;5.80;;;5.00;96.80;;;;;;5051674;28;20021;-46
2023/01/23 10:47:32;;;;;;;9.40;4.90;;;4.80;97.60;;;;;;5051894;28;20033;-44
2023/01/23 10:49:58;;;;;;;12.07;5.65;;;4.70;98.10;;;;;;5071124;28;20059;-43
2023/01/23 10:52:50;;;;;;;9.70;5.18;;;4.60;98.50;;;;;;5071304;28;20064;-48
2023/01/23 10:55:18;;;;;;;8.20;4.53;;;4.50;98.90;;;;;;5049150;28;20025;-53
2023/01/23 10:57:51;;;;;;;8.95;5.07;;;4.40;99.50;;;;;;5054059;28;20033;-53
2023/01/23 11:00:40;;;;;;;8.30;5.55;;;4.40;99.90;;;;;;5051047;28;20532;-51
2023/01/23 11:03:21;;;;;;;8.70;5.60;;;4.30;99.90;;;;;;5043646;28;20511;-48
2023/01/23 11:06:00;;;;;;;10.25;6.38;;;4.20;99.90;;;;;;5050595;28;20039;-49
2023/01/23 11:08:35;;;;;;;11.50;8.40;;;4.20;99.90;;;;;;5047708;28;20468;-54
2023/01/23 11:11:26;;;;;;;12.07;6.55;;;4.20;99.90;;;;;;5050954;28;20045;-50
2023/01/23 11:14:23;;;;;;;13.38;7.50;;;4.30;99.90;;;;;;5039525;28;20028;-50
2023/01/23 11:17:01;;;;;;;10.60;6.15;;;4.20;99.90;;;;;;5030309;28;20041;-47
2023/01/23 11:19:30;;;;;;;10.50;6.28;;;4.20;99.90;;;;;;5050888;28;20013;-52
2023/01/23 11:21:58;;;;;;;12.20;6.35;;;4.20;99.90;;;;;;5050433;28;20234;-51
2023/01/23 11:24:24;;;;;;;9.55;5.30;;;4.20;99.90;;;;;;5050795;28;20029;-51
2023/01/23 11:27:05;;;;;;;12.88;7.97;;;4.20;99.90;;;;;;5050620;28;20021;-50
2023/01/23 11:29:59;;;;;;;11.00;6.32;;;4.20;99.90;;;;;;5050400;28;20503;-52
2023/01/23 11:32:27;;;;;;;12.45;4.75;;;4.20;99.90;;;;;;5048378;28;20061;-50
2023/01/23 11:35:25;;;;;;;11.45;5.88;;;4.20;99.90;;;;;;5049218;28;20052;-44
2023/01/23 11:37:54;;;;;;;8.70;5.57;;;4.20;99.90;;;;;;5038855;28;20028;-46
2023/01/23 11:40:20;;;;;;;12.35;5.28;;;4.20;99.90;;;;;;5052986;28;20054;-45
2023/01/23 11:42:46;;;;;;;11.25;5.38;;;4.20;99.90;;;;;;5049156;28;20128;-46
2023/01/23 11:45:46;;;;;;;9.02;5.40;;;4.20;99.90;;;;;;5048618;28;20013;-46
2023/01/23 11:48:33;;;;;;;8.05;5.32;;;4.20;99.90;;;;;;5052831;28;20029;-47
2023/01/23 11:51:05;;;;;;;12.95;6.07;;;4.20;99.90;;;;;;5068159;28;20110;-46
2023/01/23 11:53:42;;;;;;;12.02;5.88;;;4.30;99.90;;;;;;5069289;28;20111;-49
2023/01/23 11:56:24;;;;;;;7.18;4.22;;;4.30;99.90;;;;;;5054433;28;20036;-49
2023/01/23 11:58:58;;;;;;;10.80;4.97;;;4.30;99.90;;;;;;5050010;28;20025;-45
2023/01/23 12:01:35;;;;;;;7.50;3.97;;;4.30;99.90;;;;;;5049074;28;20021;-46
2023/01/23 12:04:38;;;;;;;8.57;4.70;;;4.20;99.90;;;;;;5049437;28;20033;-48
2023/01/23 12:07:06;;;;;;;7.28;4.30;;;4.20;99.90;;;;;;5040440;28;20056;-46
2023/01/23 12:10:02;;;;;;;10.20;4.80;;;4.20;99.90;;;;;;5050038;28;20029;-51
2023/01/23 12:13:15;;;;;;;11.50;5.15;;;4.20;99.90;;;;;;5041665;28;20120;-45
2023/01/23 12:16:17;;;;;;;12.20;5.47;;;4.20;99.90;;;;;;5029977;28;20515;-45
2023/01/23 12:18:47;;;;;;;10.45;4.93;;;4.20;99.90;;;;;;5046559;28;20384;-45
2023/01/23 12:21:34;;;;;;;10.80;4.95;;;4.20;99.90;;;;;;5052148;28;20021;-45
2023/01/23 12:24:18;;;;;;;14.65;5.05;;;4.20;99.90;;;;;;5052090;28;20472;-46
2023/01/23 12:27:27;;;;;;;11.13;5.43;;;4.20;99.90;;;;;;5052684;28;20103;-44
2023/01/23 12:29:55;;;;;;;13.43;5.15;;;4.20;99.90;;;;;;5054023;28;20113;-45
2023/01/23 12:32:43;;;;;;;12.15;5.35;;;4.30;99.90;;;;;;5053917;28;20392;-45
2023/01/23 12:35:30;;;;;;;9.57;5.25;;;4.40;99.90;;;;;;5053995;28;20483;-45
2023/01/23 12:38:14;;;;;;;11.18;5.53;;;4.30;99.90;;;;;;5052750;28;20427;-45
2023/01/23 12:40:46;;;;;;;10.38;5.97;;;4.30;99.90;;;;;;5050618;28;20013;-45
2023/01/23 12:43:18;;;;;;;11.05;5.47;;;4.30;99.90;;;;;;5053846;28;20027;-46
2023/01/23 12:46:02;;;;;;;10.70;5.93;;;4.30;99.90;;;;;;5050518;28;20043;-48
2023/01/23 12:49:21;;;;;;;12.50;5.72;;;4.30;99.90;;;;;;5047321;28;20036;-44
2023/01/23 12:51:54;;;;;;;11.88;6.00;;;4.30;99.90;;;;;;5048538;28;20063;-45
2023/01/23 12:54:34;;;;;;;8.95;5.63;;;4.30;99.90;;;;;;5073789;28;20028;-44
2023/01/23 12:57:02;;;;;;;10.50;5.78;;;4.30;99.90;;;;;;5073630;28;20050;-54